Time;durP1;ratioP1;P1;durP2;ratioP2;P2;SDS_P1;SDS_P2;PMS_P1;PMS_P2;Temp;Humidity;BMP_temperature;BMP_pressure;BME280_temperature;BME280_humidity;BME280_pressure;Samples;Min_cycle;Max_cycle;Signal;HPM_P1;HPM_P2
2021/08/29 00:02:12;;;;;;;;;6.25;6.00;;;;;17.49;64.79;102071.25;4907055;28;48575;-85
2021/08/29 00:04:38;;;;;;;;;4.25;4.25;;;;;17.43;64.67;102072.38;4924496;28;45189;-85
2021/08/29 00:07:03;;;;;;;;;6.75;5.00;;;;;17.38;64.47;102063.72;4924024;28;45963;-84
2021/08/29 00:09:29;;;;;;;;;8.00;6.50;;;;;17.38;64.72;102063.72;4923952;28;45465;-84
2021/08/29 00:11:54;;;;;;;;;7.25;5.50;;;;;17.36;65.30;102055.78;4924092;28;46245;-85
2021/08/29 00:14:20;;;;;;;;;8.00;7.00;;;;;17.32;64.84;102063.03;4923845;28;45231;-84
2021/08/29 00:16:45;;;;;;;;;5.50;4.75;;;;;17.29;65.18;102052.53;4924390;28;45203;-83
2021/08/29 00:19:10;;;;;;;;;7.50;5.75;;;;;17.31;65.58;102063.97;4924095;28;45159;-83
2021/08/29 00:21:36;;;;;;;;;7.00;6.00;;;;;17.28;65.70;102052.59;4923659;28;45458;-83
2021/08/29 00:24:01;;;;;;;;;6.50;4.25;;;;;17.26;65.35;102051.81;4928889;28;45323;-81
2021/08/29 00:26:26;;;;;;;;;5.00;5.00;;;;;17.23;65.34;102046.63;4931560;28;45243;-83
2021/08/29 00:28:53;;;;;;;;;10.25;7.25;;;;;17.18;66.18;102052.13;4923670;28;45451;-81
2021/08/29 00:31:18;;;;;;;;;7.75;7.00;;;;;17.16;65.92;102038.03;4923671;28;45785;-81
2021/08/29 00:33:44;;;;;;;;;4.50;4.50;;;;;17.13;66.12;102051.41;4924135;28;45372;-81
2021/08/29 00:36:09;;;;;;;;;7.00;4.25;;;;;17.12;66.11;102054.97;4923814;28;45307;-81
2021/08/29 00:38:34;;;;;;;;;10.75;5.75;;;;;17.10;66.02;102041.75;4924045;28;45304;-81
2021/08/29 00:41:00;;;;;;;;;5.50;5.25;;;;;17.13;66.34;102048.75;4923094;28;46449;-85
2021/08/29 00:43:25;;;;;;;;;6.25;4.25;;;;;17.15;66.07;102052.19;4922809;28;45323;-87
2021/08/29 00:45:54;;;;;;;;;6.00;5.75;;;;;17.18;66.44;102052.13;4923676;28;45302;-87
2021/08/29 00:48:19;;;;;;;;;6.25;5.25;;;;;17.17;66.36;102048.59;4923351;28;45533;-88
2021/08/29 00:50:46;;;;;;;;;8.50;7.25;;;;;17.17;66.28;102053.03;4913634;28;47004;-86
2021/08/29 00:53:18;;;;;;;;;4.50;3.75;;;;;17.16;66.29;102046.00;4923622;28;45272;-85
2021/08/29 00:55:45;;;;;;;;;5.00;5.00;;;;;17.07;66.07;102032.13;4923664;28;45244;-87
2021/08/29 00:58:10;;;;;;;;;5.50;5.50;;;;;17.14;66.04;102047.78;4906201;28;46398;-84
2021/08/29 01:00:42;;;;;;;;;6.25;5.00;;;;;17.07;66.55;102050.72;4923743;28;45235;-84
2021/08/29 01:03:15;;;;;;;;;6.00;5.00;;;;;17.02;66.68;102042.06;4923464;28;45442;-86
2021/08/29 01:05:50;;;;;;;;;4.75;3.75;;;;;17.00;66.86;102038.59;4923102;28;45552;-81
2021/08/29 01:08:17;;;;;;;;;6.00;5.75;;;;;17.00;66.99;102041.25;4923661;28;45300;-81
2021/08/29 01:10:50;;;;;;;;;7.25;5.25;;;;;17.00;66.98;102046.56;4923200;28;46428;-80
2021/08/29 01:13:23;;;;;;;;;9.50;6.00;;;;;16.95;67.09;102035.25;4923374;28;45688;-81
2021/08/29 01:15:51;;;;;;;;;10.00;8.00;;;;;16.95;66.68;102029.94;4922841;28;45319;-82
2021/08/29 01:18:20;;;;;;;;;6.25;5.75;;;;;16.94;67.29;102034.38;4923415;28;45441;-81
2021/08/29 01:20:52;;;;;;;;;6.25;6.00;;;;;16.98;66.68;102040.47;4922918;28;45320;-81
2021/08/29 01:23:20;;;;;;;;;7.75;6.25;;;;;16.97;67.13;102036.94;4922677;28;45172;-80
2021/08/29 01:25:52;;;;;;;;;7.75;5.25;;;;;16.96;67.07;102026.38;4922776;28;45579;-80
2021/08/29 01:28:17;;;;;;;;;7.25;6.25;;;;;16.93;66.81;102029.16;4922989;28;45551;-83
2021/08/29 01:30:45;;;;;;;;;5.75;5.00;;;;;16.95;66.89;102037.91;4923096;28;46652;-84
2021/08/29 01:33:12;;;;;;;;;7.75;6.00;;;;;16.94;66.88;102041.50;4923048;28;45537;-84
2021/08/29 01:35:40;;;;;;;;;5.00;4.25;;;;;16.91;67.08;102033.66;4922636;28;45337;-84
2021/08/29 01:38:08;;;;;;;;;10.00;4.00;;;;;16.93;66.80;102040.63;4904050;28;46330;-84
2021/08/29 01:40:35;;;;;;;;;8.25;6.00;;;;;16.93;66.83;102039.78;4905717;28;48259;-85
2021/08/29 01:43:02;;;;;;;;;6.75;4.00;;;;;16.89;67.41;102030.19;4922464;28;45577;-82
2021/08/29 01:45:28;;;;;;;;;6.25;5.75;;;;;16.85;67.59;102040.94;4921062;28;45501;-82
2021/08/29 01:47:56;;;;;;;;;6.25;6.25;;;;;16.84;67.28;102027.72;4922428;28;45424;-82
2021/08/29 01:50:21;;;;;;;;;7.00;5.50;;;;;16.81;68.02;102034.03;4926308;28;46573;-82
2021/08/29 01:52:47;;;;;;;;;6.00;4.25;;;;;16.74;67.84;102028.06;4922221;28;45343;-82
2021/08/29 01:55:12;;;;;;;;;9.25;5.25;;;;;16.75;68.04;102031.59;4922875;28;45223;-85
2021/08/29 01:57:38;;;;;;;;;8.25;5.25;;;;;16.73;67.80;102041.41;4922471;28;45512;-80
2021/08/29 02:00:04;;;;;;;;;6.00;6.00;;;;;16.73;68.27;102044.06;4922179;28;45482;-80
2021/08/29 02:02:29;;;;;;;;;8.75;7.25;;;;;16.68;68.11;102044.25;4922679;28;45175;-81
2021/08/29 02:04:55;;;;;;;;;7.50;7.50;;;;;16.62;68.80;102042.69;4922568;28;45312;-81
2021/08/29 02:07:36;;;;;;;;;12.25;7.00;;;;;16.59;68.72;102055.22;4922163;28;45524;-81
2021/08/29 02:10:06;;;;;;;;;10.50;7.50;;;;;16.53;68.86;102051.88;4905255;28;47475;-81
2021/08/29 02:12:36;;;;;;;;;10.75;10.50;;;;;16.52;69.24;102049.25;4922293;28;45172;-81
2021/08/29 02:15:07;;;;;;;;;9.50;9.25;;;;;16.54;69.04;102053.56;4904763;28;45439;-81
2021/08/29 02:17:34;;;;;;;;;11.00;9.75;;;;;16.54;69.68;102058.03;4922195;28;45460;-82
2021/08/29 02:20:06;;;;;;;;;12.25;9.25;;;;;16.53;69.86;102058.94;4905133;28;46945;-81
2021/08/29 02:22:33;;;;;;;;;10.50;10.25;;;;;16.52;69.32;102062.50;4921829;28;45612;-81
2021/08/29 02:24:58;;;;;;;;;12.00;9.25;;;;;16.52;69.37;102055.44;4922500;28;45328;-81
2021/08/29 02:27:24;;;;;;;;;11.00;11.00;;;;;16.55;69.37;102067.72;4922334;28;45473;-81
2021/08/29 02:29:50;;;;;;;;;13.00;9.25;;;;;16.54;69.14;102060.69;4922141;28;46223;-82
2021/08/29 02:32:16;;;;;;;;;12.00;10.25;;;;;16.51;69.08;102061.69;4922061;28;45363;-83
2021/08/29 02:34:41;;;;;;;;;11.00;10.00;;;;;16.52;69.66;102074.00;4922492;28;45274;-80
2021/08/29 02:37:09;;;;;;;;;11.00;9.25;;;;;16.50;69.43;102056.41;4921569;28;45259;-85
2021/08/29 02:39:36;;;;;;;;;13.25;11.75;;;;;16.48;69.31;102063.56;4904970;28;46855;-85
2021/08/29 02:42:03;;;;;;;;;12.00;9.50;;;;;16.47;69.41;102054.72;4904670;28;45449;-85
2021/08/29 02:44:29;;;;;;;;;10.75;10.25;;;;;16.52;69.63;102068.69;4921398;28;45369;-85
2021/08/29 02:46:54;;;;;;;;;12.75;12.00;;;;;16.53;69.25;102061.59;4921974;28;45574;-83
2021/08/29 02:49:21;;;;;;;;;12.25;10.50;;;;;16.51;69.45;102063.47;4904560;28;47186;-83
2021/08/29 02:51:51;;;;;;;;;13.00;12.75;;;;;16.51;69.83;102066.97;4928834;28;45393;-81
2021/08/29 02:54:18;;;;;;;;;14.50;13.00;;;;;16.45;69.61;102047.75;4922031;28;45481;-80
2021/08/29 02:56:47;;;;;;;;;13.75;11.75;;;;;16.48;69.72;102052.94;4921856;28;45296;-80
2021/08/29 02:59:12;;;;;;;;;17.25;12.75;;;;;16.48;69.44;102056.47;4921900;28;46591;-81
2021/08/29 03:01:38;;;;;;;;;13.50;12.50;;;;;16.52;69.31;102065.16;4921097;28;45237;-81
2021/08/29 03:04:04;;;;;;;;;12.75;11.25;;;;;16.54;69.31;102060.69;4921961;28;45288;-80
2021/08/29 03:06:29;;;;;;;;;13.00;12.25;;;;;16.50;69.37;102059.06;4921210;28;45225;-80
2021/08/29 03:08:55;;;;;;;;;13.50;11.25;;;;;16.49;69.52;102052.91;4921644;28;45567;-79
2021/08/29 03:11:21;;;;;;;;;17.25;13.75;;;;;16.51;69.74;102058.16;4921576;28;45231;-81
2021/08/29 03:13:48;;;;;;;;;13.50;10.50;;;;;16.51;69.58;102059.03;4921261;28;45248;-79
2021/08/29 03:16:14;;;;;;;;;13.50;11.50;;;;;16.53;69.37;102065.13;4921336;28;45287;-80
2021/08/29 03:18:40;;;;;;;;;12.75;12.75;;;;;16.51;69.60;102056.38;4921653;28;45247;-82
2021/08/29 03:21:06;;;;;;;;;14.25;11.00;;;;;16.51;69.52;102055.50;4921140;28;45560;-78
2021/08/29 03:23:31;;;;;;;;;15.75;12.75;;;;;16.49;69.89;102052.91;4921445;28;45328;-83
2021/08/29 03:25:57;;;;;;;;;14.00;12.50;;;;;16.47;70.22;102052.06;4921274;28;45580;-86
2021/08/29 03:28:23;;;;;;;;;14.25;12.25;;;;;16.42;69.64;102046.94;4921671;28;47316;-85
2021/08/29 03:30:48;;;;;;;;;12.25;11.75;;;;;16.46;70.08;102054.81;4904168;28;45876;-85
2021/08/29 03:33:13;;;;;;;;;11.00;9.75;;;;;16.40;70.07;102035.53;4921770;28;45224;-84
2021/08/29 03:35:39;;;;;;;;;17.00;11.25;;;;;16.42;69.68;102046.09;4921229;28;45497;-84
2021/08/29 03:38:06;;;;;;;;;15.00;13.50;;;;;16.42;70.00;102041.63;4921203;28;46380;-86
2021/08/29 03:40:32;;;;;;;;;10.00;10.00;;;;;16.38;70.22;102036.50;4921552;28;45259;-85
2021/08/29 03:42:57;;;;;;;;;12.25;10.25;;;;;16.34;70.11;102033.13;4920671;28;45944;-86
2021/08/29 03:45:23;;;;;;;;;16.75;12.50;;;;;16.35;70.37;102034.81;4921057;28;45426;-84
2021/08/29 03:47:48;;;;;;;;;17.50;11.75;;;;;16.32;70.23;102027.00;4920915;28;46369;-81
2021/08/29 03:50:14;;;;;;;;;13.00;12.25;;;;;16.33;70.31;102033.16;4928490;28;45481;-80
2021/08/29 03:52:39;;;;;;;;;14.00;13.00;;;;;16.30;70.30;102028.81;4907420;28;45365;-80
2021/08/29 03:55:06;;;;;;;;;13.25;11.25;;;;;16.29;70.11;102029.75;4921329;28;45349;-80
2021/08/29 03:57:33;;;;;;;;;15.75;14.50;;;;;16.29;70.40;102022.69;4920991;28;47320;-80
2021/08/29 03:59:58;;;;;;;;;13.75;12.50;;;;;16.31;70.01;102025.25;4921408;28;45327;-81
2021/08/29 04:02:24;;;;;;;;;11.25;9.00;;;;;16.27;70.28;102019.19;4907282;28;45295;-79
2021/08/29 04:04:49;;;;;;;;;17.50;12.75;;;;;16.24;70.39;102029.06;4924271;28;45509;-78
2021/08/29 04:07:16;;;;;;;;;19.50;13.25;;;;;16.18;70.38;102019.53;4924057;28;45586;-81
2021/08/29 04:09:44;;;;;;;;;13.50;12.50;;;;;16.18;70.74;102020.41;4924568;28;45226;-81
2021/08/29 04:12:09;;;;;;;;;12.00;9.75;;;;;16.19;70.41;102019.50;4924232;28;45363;-81
2021/08/29 04:14:35;;;;;;;;;13.75;12.25;;;;;16.13;70.86;102022.34;4924089;28;45417;-81
2021/08/29 04:17:03;;;;;;;;;10.00;9.75;;;;;16.10;70.52;102022.44;4923452;28;45466;-81
2021/08/29 04:19:30;;;;;;;;;12.25;12.00;;;;;16.06;71.25;102020.84;4923979;28;45174;-81
2021/08/29 04:21:55;;;;;;;;;13.25;10.25;;;;;16.04;71.05;102020.00;4923832;28;45188;-79
2021/08/29 04:24:21;;;;;;;;;11.75;9.75;;;;;16.05;71.28;102019.97;4923959;28;45259;-78
2021/08/29 04:26:47;;;;;;;;;11.00;9.25;;;;;16.01;71.05;102031.59;4923919;28;45400;-81
2021/08/29 04:29:13;;;;;;;;;10.50;9.25;;;;;15.96;71.24;102028.22;4923895;28;45295;-83
2021/08/29 04:31:38;;;;;;;;;13.00;9.50;;;;;15.96;71.56;102025.56;4924260;28;45437;-83
2021/08/29 04:34:08;;;;;;;;;11.00;11.00;;;;;15.97;71.29;102028.19;4923594;28;45469;-84
2021/08/29 04:36:36;;;;;;;;;9.00;8.00;;;;;15.95;71.54;102029.16;4923729;28;45366;-79
2021/08/29 04:39:08;;;;;;;;;17.00;11.75;;;;;15.90;71.39;102031.09;4923942;28;45203;-79
2021/08/29 04:41:34;;;;;;;;;11.50;11.50;;;;;15.89;71.76;102030.22;4923849;28;45237;-79
2021/08/29 04:44:01;;;;;;;;;9.50;9.25;;;;;15.83;71.92;102030.44;4921700;28;45600;-79
2021/08/29 04:46:26;;;;;;;;;16.00;12.50;;;;;15.81;71.38;102027.84;4914698;28;45331;-79
2021/08/29 04:48:51;;;;;;;;;16.75;11.75;;;;;15.85;71.91;102028.63;4923257;28;45218;-79
2021/08/29 04:51:17;;;;;;;;;12.75;10.75;;;;;15.86;71.61;102023.25;4923322;28;45489;-83
2021/08/29 04:53:42;;;;;;;;;3.00;3.00;;;;;15.86;71.27;102038.28;4923516;28;45588;-84
2021/08/29 04:56:07;;;;;;;;;10.50;10.25;;;;;15.86;71.46;102030.34;4923501;28;45470;-82
2021/08/29 04:58:33;;;;;;;;;14.50;11.50;;;;;15.86;71.28;102030.34;4923598;28;45286;-82
2021/08/29 05:00:58;;;;;;;;;13.25;11.50;;;;;15.86;71.51;102036.50;4922832;28;45278;-82
2021/08/29 05:03:24;;;;;;;;;12.00;11.75;;;;;15.87;71.48;102042.69;4911424;28;45397;-82
2021/08/29 05:05:49;;;;;;;;;11.75;11.00;;;;;15.88;71.59;102033.78;4923057;28;46215;-80
2021/08/29 05:08:14;;;;;;;;;15.00;10.50;;;;;15.88;71.58;102039.09;4923467;28;45378;-79
2021/08/29 05:10:40;;;;;;;;;12.00;11.25;;;;;15.90;71.21;102041.72;4922738;28;45295;-79
2021/08/29 05:13:06;;;;;;;;;11.00;9.25;;;;;15.92;71.12;102031.91;4923262;28;45604;-79
2021/08/29 05:15:31;;;;;;;;;12.00;10.00;;;;;15.92;71.18;102030.13;4922768;28;45402;-82
2021/08/29 05:17:57;;;;;;;;;13.25;9.25;;;;;15.95;71.48;102037.97;4923225;28;45410;-84
2021/08/29 05:20:23;;;;;;;;;11.00;9.25;;;;;15.90;71.27;102039.91;4922901;28;45234;-84
2021/08/29 05:22:48;;;;;;;;;13.50;13.00;;;;;15.90;71.28;102031.09;4922935;28;45446;-83
2021/08/29 05:25:13;;;;;;;;;7.75;7.75;;;;;15.92;71.22;102037.22;4923057;28;45265;-80
2021/08/29 05:27:39;;;;;;;;;16.75;12.75;;;;;15.92;71.01;102034.56;4923194;28;45272;-76
2021/08/29 05:30:05;;;;;;;;;11.25;11.25;;;;;15.97;70.90;102049.41;4922954;28;45178;-81
2021/08/29 05:32:30;;;;;;;;;14.75;9.75;;;;;16.01;71.23;102047.50;4923156;28;45227;-77
2021/08/29 05:34:56;;;;;;;;;12.00;10.25;;;;;16.00;70.91;102058.16;4922965;28;45420;-81
2021/08/29 05:37:21;;;;;;;;;12.50;10.50;;;;;15.95;70.94;102050.38;4922942;28;45311;-82
2021/08/29 05:39:47;;;;;;;;;13.00;10.75;;;;;15.92;71.23;102056.66;4922845;28;45477;-81
2021/08/29 05:42:12;;;;;;;;;12.00;11.25;;;;;15.86;71.09;102049.75;4922983;28;45236;-80
2021/08/29 05:44:37;;;;;;;;;15.50;8.75;;;;;15.81;71.58;102056.13;4922137;28;45383;-84
2021/08/29 05:47:03;;;;;;;;;13.75;11.50;;;;;15.81;71.36;102064.09;4920077;28;45471;-78
2021/08/29 05:49:29;;;;;;;;;14.75;12.50;;;;;15.79;71.89;102065.94;4924293;28;45461;-77
2021/08/29 05:51:54;;;;;;;;;15.00;13.00;;;;;15.71;71.64;102064.41;4930301;28;45308;-79
2021/08/29 05:54:19;;;;;;;;;13.25;13.25;;;;;15.72;71.96;102062.63;4921067;28;45319;-78
2021/08/29 05:56:45;;;;;;;;;12.50;11.25;;;;;15.72;72.22;102055.53;4921016;28;45389;-79
2021/08/29 05:59:10;;;;;;;;;17.25;13.75;;;;;15.74;71.87;102053.69;4921446;28;45278;-78
2021/08/29 06:01:35;;;;;;;;;20.50;12.75;;;;;15.77;72.06;102058.03;4921816;28;45396;-77
2021/08/29 06:04:01;;;;;;;;;15.75;11.50;;;;;15.83;71.89;102060.47;4922213;28;45428;-77
2021/08/29 06:06:27;;;;;;;;;16.75;16.50;;;;;15.89;71.85;102050.56;4922612;28;45289;-77
2021/08/29 06:08:52;;;;;;;;;12.75;11.50;;;;;15.95;71.87;102048.56;4922690;28;45489;-77
2021/08/29 06:11:18;;;;;;;;;15.00;15.00;;;;;16.00;71.50;102052.88;4922160;28;45442;-77
2021/08/29 06:13:43;;;;;;;;;19.75;16.00;;;;;16.04;71.26;102058.03;4922337;28;45353;-74
2021/08/29 06:16:08;;;;;;;;;13.00;11.75;;;;;16.02;71.51;102059.84;4922161;28;45158;-75
2021/08/29 06:18:34;;;;;;;;;10.75;10.25;;;;;16.06;71.21;102060.63;4922068;28;45485;-75
2021/08/29 06:20:59;;;;;;;;;12.75;11.50;;;;;16.08;71.36;102056.13;4922311;28;45437;-75
2021/08/29 06:23:25;;;;;;;;;20.00;18.75;;;;;16.13;71.29;102059.47;4921429;28;45511;-75
2021/08/29 06:25:50;;;;;;;;;20.25;17.00;;;;;16.15;71.15;102056.78;4903096;28;46851;-75
2021/08/29 06:28:16;;;;;;;;;17.00;14.00;;;;;16.16;71.18;102055.84;4922077;28;45413;-75
2021/08/29 06:30:41;;;;;;;;;14.00;12.00;;;;;16.20;71.03;102066.28;4921800;28;45354;-76
2021/08/29 06:33:06;;;;;;;;;14.25;12.50;;;;;16.26;71.11;102064.34;4930378;28;45370;-77
2021/08/29 06:35:32;;;;;;;;;14.25;13.25;;;;;16.27;70.84;102066.09;4925946;28;45288;-76
2021/08/29 06:37:57;;;;;;;;;17.00;14.75;;;;;16.28;70.86;102059.84;4922275;28;45425;-87
2021/08/29 06:40:22;;;;;;;;;18.25;12.50;;;;;16.34;70.74;102069.38;4922132;28;45407;-84
2021/08/29 06:42:48;;;;;;;;;17.75;15.25;;;;;16.31;70.59;102071.22;4921308;28;45252;-81
2021/08/29 06:45:13;;;;;;;;;16.50;14.25;;;;;16.31;71.06;102065.06;4922137;28;45356;-82
2021/08/29 06:47:38;;;;;;;;;14.75;13.50;;;;;16.31;70.88;102057.97;4922137;28;45393;-80
2021/08/29 06:50:05;;;;;;;;;13.75;12.25;;;;;16.34;70.69;102057.00;4925806;28;45463;-82
2021/08/29 06:52:30;;;;;;;;;12.50;11.25;;;;;16.32;70.81;102061.50;4921771;28;46347;-82
2021/08/29 06:54:56;;;;;;;;;16.50;10.75;;;;;16.38;70.71;102057.72;4922391;28;45410;-83
2021/08/29 06:57:24;;;;;;;;;12.75;11.50;;;;;16.41;70.36;102073.53;4921746;28;45509;-83
2021/08/29 06:59:50;;;;;;;;;14.25;12.50;;;;;16.41;70.44;102070.88;4921241;28;45643;-83
2021/08/29 07:02:16;;;;;;;;;11.25;10.00;;;;;16.37;70.63;102072.78;4921552;28;46372;-79
2021/08/29 07:04:41;;;;;;;;;10.00;10.00;;;;;16.39;70.12;102070.09;4922028;28;45259;-80
2021/08/29 07:07:07;;;;;;;;;11.25;10.00;;;;;16.36;70.74;102071.06;4921884;28;45303;-81
2021/08/29 07:09:32;;;;;;;;;10.75;9.50;;;;;16.35;70.69;102065.78;4921800;28;45191;-81
2021/08/29 07:11:57;;;;;;;;;10.00;8.50;;;;;16.36;70.48;102067.53;4903869;28;47121;-81
2021/08/29 07:14:23;;;;;;;;;8.50;7.00;;;;;16.37;70.67;102051.56;4925386;28;45682;-80
2021/08/29 07:16:48;;;;;;;;;12.75;7.75;;;;;16.49;70.39;102071.50;4928400;28;45425;-81
2021/08/29 07:19:13;;;;;;;;;16.00;11.25;;;;;16.50;70.17;102073.19;4921201;28;45962;-81
2021/08/29 07:21:39;;;;;;;;;11.50;8.50;;;;;16.48;70.46;102075.06;4921487;28;46142;-82
2021/08/29 07:24:04;;;;;;;;;16.75;11.00;;;;;16.51;70.09;102071.41;4904045;28;45427;-81
2021/08/29 07:26:30;;;;;;;;;9.25;7.00;;;;;16.60;70.03;102076.38;4921903;28;45275;-81
2021/08/29 07:28:55;;;;;;;;;10.75;8.50;;;;;16.71;69.62;102080.44;4904334;28;46256;-82
2021/08/29 07:31:20;;;;;;;;;11.75;11.25;;;;;16.75;69.30;102074.06;4921726;28;46286;-81
2021/08/29 07:33:46;;;;;;;;;11.25;9.50;;;;;16.76;69.33;102075.81;4921540;28;45407;-77
2021/08/29 07:36:11;;;;;;;;;9.75;5.50;;;;;16.75;69.28;102072.28;4923797;28;45312;-78
2021/08/29 07:38:36;;;;;;;;;4.25;2.00;;;;;16.71;69.15;102088.38;4923972;28;45406;-78
2021/08/29 07:41:02;;;;;;;;;11.75;9.25;;;;;16.68;69.06;102064.59;4907448;28;48124;-78
2021/08/29 07:43:28;;;;;;;;;13.00;10.25;;;;;16.65;69.41;102082.38;4922637;28;45304;-78
2021/08/29 07:45:53;;;;;;;;;9.50;9.50;;;;;16.62;69.18;102074.53;4923186;28;45225;-83
2021/08/29 07:48:18;;;;;;;;;7.50;7.50;;;;;16.64;69.43;102071.84;4924874;28;45241;-80
2021/08/29 07:50:44;;;;;;;;;10.00;9.25;;;;;16.70;69.64;102082.22;4931751;28;46671;-80
2021/08/29 07:53:09;;;;;;;;;11.00;10.00;;;;;16.72;69.08;102084.78;4924435;28;45264;-84
2021/08/29 07:55:35;;;;;;;;;16.75;13.25;;;;;16.68;69.06;102083.19;4924489;28;45482;-82
2021/08/29 07:58:00;;;;;;;;;8.75;8.75;;;;;16.64;69.51;102080.66;4924548;28;45331;-85
2021/08/29 08:00:27;;;;;;;;;10.25;9.25;;;;;16.71;69.27;102080.44;4906821;28;48340;-80
2021/08/29 08:02:52;;;;;;;;;14.50;13.50;;;;;16.80;69.94;102085.38;4924807;28;45543;-79
2021/08/29 08:05:18;;;;;;;;;11.75;11.25;;;;;16.87;69.07;102086.00;4907146;28;45358;-80
2021/08/29 08:07:43;;;;;;;;;13.50;11.50;;;;;16.89;69.09;102080.66;4924650;28;45430;-87
2021/08/29 08:10:09;;;;;;;;;14.25;12.75;;;;;16.91;69.12;102081.47;4924255;28;45287;-87
2021/08/29 08:12:35;;;;;;;;;18.75;13.00;;;;;16.99;69.09;102074.91;4907305;28;45751;-80
2021/08/29 08:15:00;;;;;;;;;13.00;11.00;;;;;17.07;68.83;102082.59;4913243;28;45361;-75
2021/08/29 08:17:26;;;;;;;;;17.50;13.50;;;;;17.09;68.73;102075.41;4924260;28;45538;-76
2021/08/29 08:19:51;;;;;;;;;14.50;11.25;;;;;17.14;68.74;102084.97;4924402;28;46221;-76
2021/08/29 08:22:17;;;;;;;;;9.25;9.25;;;;;17.23;68.33;102074.06;4923653;28;45437;-77
2021/08/29 08:24:42;;;;;;;;;10.75;9.50;;;;;17.34;68.16;102073.59;4924080;28;45381;-81
2021/08/29 08:27:07;;;;;;;;;13.50;12.25;;;;;17.43;67.57;102069.72;4916730;28;45480;-82
2021/08/29 08:29:33;;;;;;;;;11.75;10.25;;;;;17.48;67.93;102067.72;4923536;28;46759;-85
2021/08/29 08:31:58;;;;;;;;;20.00;13.75;;;;;17.51;67.33;102066.72;4903856;28;45287;-86
2021/08/29 08:34:23;;;;;;;;;13.50;11.50;;;;;17.51;67.10;102069.38;4924424;28;45763;-86
2021/08/29 08:36:49;;;;;;;;;12.75;12.50;;;;;17.53;67.11;102065.72;4906502;28;45881;-84
2021/08/29 08:39:14;;;;;;;;;12.75;10.75;;;;;17.52;67.23;102064.03;4923768;28;45306;-84
2021/08/29 08:41:40;;;;;;;;;11.00;10.25;;;;;17.55;66.81;102065.69;4906372;28;45455;-82
2021/08/29 08:44:06;;;;;;;;;16.25;12.25;;;;;17.61;67.61;102062.75;4906682;28;45206;-81
2021/08/29 08:46:32;;;;;;;;;14.50;11.75;;;;;17.68;66.73;102066.00;4923091;28;45397;-79
2021/08/29 08:49:01;;;;;;;;;14.00;11.50;;;;;17.70;66.83;102069.50;4923715;28;45537;-81
2021/08/29 08:51:29;;;;;;;;;12.00;11.50;;;;;17.71;66.33;102073.00;4910819;28;45923;-82
2021/08/29 08:53:57;;;;;;;;;12.50;12.50;;;;;17.63;66.86;102062.72;4923479;28;45279;-81
2021/08/29 08:56:23;;;;;;;;;14.75;12.75;;;;;17.61;66.66;102070.72;4923404;28;45294;-80
2021/08/29 08:58:49;;;;;;;;;12.00;11.25;;;;;17.64;66.54;102059.97;4923234;28;45366;-83
2021/08/29 09:01:15;;;;;;;;;14.75;12.75;;;;;17.72;66.36;102062.31;4923502;28;45421;-81
2021/08/29 09:03:41;;;;;;;;;15.00;12.50;;;;;17.75;66.23;102066.66;4923599;28;45310;-82
2021/08/29 09:06:08;;;;;;;;;15.25;12.50;;;;;17.81;66.02;102076.13;4923250;28;45365;-85
2021/08/29 09:08:35;;;;;;;;;14.25;12.25;;;;;17.80;65.73;102061.13;4923517;28;45329;-84
2021/08/29 09:11:00;;;;;;;;;12.25;11.50;;;;;17.78;66.28;102066.50;4923171;28;45160;-85
2021/08/29 09:13:26;;;;;;;;;12.25;10.75;;;;;17.81;66.69;102061.06;4923382;28;45437;-82
2021/08/29 09:16:11;;;;;;;;;9.75;9.25;;;;;17.88;66.07;102062.50;4905608;28;45978;-81
2021/08/29 09:18:47;;;;;;;;;12.00;12.00;;;;;17.95;66.18;102051.63;4923486;28;46054;-77
2021/08/29 09:21:26;;;;;;;;;10.50;9.75;;;;;18.04;65.76;102061.84;4923142;28;45304;-76
2021/08/29 09:23:53;;;;;;;;;13.00;12.00;;;;;18.13;66.01;102060.56;4923294;28;45279;-76
2021/08/29 09:26:20;;;;;;;;;13.75;10.75;;;;;18.21;65.27;102053.16;4923319;28;45239;-83
2021/08/29 09:28:47;;;;;;;;;12.25;10.75;;;;;18.21;64.87;102054.94;4923146;28;45322;-79
2021/08/29 09:31:14;;;;;;;;;7.25;5.00;;;;;18.23;64.89;102055.75;4923095;28;45492;-75
2021/08/29 09:33:41;;;;;;;;;12.50;10.75;;;;;18.27;65.04;102067.13;4923312;28;45438;-75
2021/08/29 09:36:10;;;;;;;;;14.75;10.00;;;;;18.32;65.04;102054.50;4922779;28;45293;-77
2021/08/29 09:38:40;;;;;;;;;8.25;7.50;;;;;18.39;64.85;102049.75;4927466;28;46145;-80
2021/08/29 09:41:25;;;;;;;;;12.50;9.25;;;;;18.50;64.31;102059.88;4922841;28;45413;-82
2021/08/29 09:43:51;;;;;;;;;10.25;9.75;;;;;18.51;64.46;102054.50;4921675;28;45283;-81
2021/08/29 09:46:16;;;;;;;;;8.00;8.00;;;;;18.53;63.96;102057.97;4922476;28;45452;-81
2021/08/29 09:48:50;;;;;;;;;8.75;7.00;;;;;18.56;63.85;102056.94;4922532;28;46323;-81
2021/08/29 09:51:16;;;;;;;;;7.75;7.00;;;;;18.53;63.81;102049.09;4902813;28;45361;-81
2021/08/29 09:53:46;;;;;;;;;7.75;7.00;;;;;18.53;63.58;102057.97;4923275;28;45397;-75
2021/08/29 09:56:21;;;;;;;;;8.00;7.25;;;;;18.55;63.42;102056.09;4921801;28;46478;-76
2021/08/29 09:58:47;;;;;;;;;5.75;5.75;;;;;18.55;63.45;102058.75;4914990;28;45581;-76
2021/08/29 10:01:14;;;;;;;;;7.75;7.75;;;;;18.59;63.42;102050.63;4922730;28;45413;-75
2021/08/29 10:03:45;;;;;;;;;6.75;6.75;;;;;18.67;62.69;102046.66;4922647;28;45399;-76
2021/08/29 10:06:26;;;;;;;;;8.25;8.25;;;;;18.71;62.76;102055.38;4922856;28;45342;-76
2021/08/29 10:08:58;;;;;;;;;6.00;6.00;;;;;18.70;62.90;102047.44;4922599;28;45386;-75
2021/08/29 10:11:29;;;;;;;;;9.00;6.00;;;;;18.73;62.62;102039.31;4904897;28;45405;-74
2021/08/29 10:13:55;;;;;;;;;7.50;6.00;;;;;18.75;62.96;102046.31;4920450;28;45493;-76
2021/08/29 10:16:22;;;;;;;;;6.50;6.25;;;;;18.79;63.23;102047.03;4922539;28;45168;-74
2021/08/29 10:18:53;;;;;;;;;9.25;8.00;;;;;18.80;62.61;102038.09;4905376;28;47066;-76
2021/08/29 10:21:21;;;;;;;;;6.00;5.00;;;;;18.80;62.20;102047.88;4922077;28;45568;-74
2021/08/29 10:23:48;;;;;;;;;10.50;8.00;;;;;18.78;62.03;102050.63;4921913;28;45352;-75
2021/08/29 10:26:17;;;;;;;;;9.25;6.00;;;;;18.73;63.71;102052.63;4920803;28;45584;-75
2021/08/29 10:28:43;;;;;;;;;6.25;6.25;;;;;18.72;63.98;102045.56;4921922;28;46549;-75
2021/08/29 10:31:17;;;;;;;;;10.25;8.00;;;;;18.75;64.60;102051.63;4922141;28;45228;-75
2021/08/29 10:33:48;;;;;;;;;8.00;7.50;;;;;18.76;64.08;102052.50;4907628;28;45414;-75
2021/08/29 10:36:16;;;;;;;;;10.00;8.00;;;;;18.75;64.05;102054.28;4906175;28;46471;-75
2021/08/29 10:38:42;;;;;;;;;9.00;8.00;;;;;18.80;63.87;102056.72;4905220;28;47762;-75
2021/08/29 10:41:08;;;;;;;;;7.00;7.00;;;;;18.82;63.35;102048.66;4923684;28;45893;-75
2021/08/29 10:43:36;;;;;;;;;7.25;6.25;;;;;18.84;63.74;102034.34;4904433;28;45325;-76
2021/08/29 10:46:02;;;;;;;;;5.50;5.50;;;;;18.95;63.27;102035.63;4921446;28;45425;-76
2021/08/29 10:48:28;;;;;;;;;10.00;8.50;;;;;19.02;62.54;102047.72;4921859;28;46406;-76
2021/08/29 10:50:53;;;;;;;;;9.75;8.50;;;;;19.03;62.66;102041.47;4926967;28;45477;-76
2021/08/29 10:53:30;;;;;;;;;9.50;7.25;;;;;19.06;62.21;102038.63;4920355;28;45514;-76
2021/08/29 10:56:14;;;;;;;;;9.25;9.25;;;;;19.12;61.66;102035.69;4926125;28;45448;-76
2021/08/29 10:58:39;;;;;;;;;8.00;6.25;;;;;19.20;62.24;102032.69;4920835;28;45527;-76
2021/08/29 11:01:04;;;;;;;;;7.00;7.00;;;;;19.30;61.67;102030.41;4904679;28;45259;-76
2021/08/29 11:03:30;;;;;;;;;11.00;7.25;;;;;19.38;61.48;102029.16;4922001;28;45525;-76
2021/08/29 11:05:56;;;;;;;;;8.00;8.00;;;;;19.44;61.69;102026.19;4921556;28;45312;-75
2021/08/29 11:08:24;;;;;;;;;8.50;7.50;;;;;19.51;61.63;102026.72;4922139;28;46367;-76
2021/08/29 11:10:50;;;;;;;;;10.50;9.50;;;;;19.58;60.83;102029.97;4924516;28;45569;-76
2021/08/29 11:13:27;;;;;;;;;11.50;9.50;;;;;19.61;60.41;102035.13;4925004;28;45186;-76
2021/08/29 11:16:13;;;;;;;;;8.75;6.00;;;;;19.63;60.22;102026.09;4925543;28;45339;-76